Flight Track Log - Related Links

Times and Time Zones

All times are in EDT time to prevent confusion due to time zone crossing. See the N299A flight status page for this flight to view local times or setup timezone preferences in your user account.

Time Position Orientation Groundspeed Altitude Reporting Facility
EDT Latitude Longitude Course Direction KTS MPH feet Rate Location/Type
Sat 02:03:42 PM 40.5553 -85.7475 131° Southeast 158 182 2,800  Level Chicago Center
Sat 02:04:43 PM 40.5272 -85.7050 131° Southeast 157 181 2,700  Descending Chicago Center
Sat 02:05:46 PM 40.4944 -85.6664 138° Southeast 155 178 2,800  Climbing Chicago Center
Sat 02:06:48 PM 40.4600 -85.6300 141° Southeast 156 180 2,700 -48 Descending Chicago Center
Sat 02:07:50 PM 40.4253 -85.5911 140° Southeast 158 182 2,700  Level Chicago Center
Sat 02:08:52 PM 40.3928 -85.5547 140° Southeast 158 182 2,700  Level Chicago Center
Sat 02:09:56 PM 40.3536 -85.5083 138° Southeast 157 181 2,700  Level Indianapolis Center
Sat 02:10:57 PM 40.3208 -85.4708 139° Southeast 157 181 2,700 49 Level Indianapolis Center
Sat 02:11:59 PM 40.2889 -85.4339 139° Southeast 156 180 2,800 98 Climbing Indianapolis Center
Sat 02:13:00 PM 40.2561 -85.3967 139° Southeast 156 180 2,900 98 Climbing Indianapolis Center
Sat 02:14:02 PM 40.2239 -85.3608 140° Southeast 155 178 3,000  Climbing Indianapolis Center
Sat 02:15:03 PM 40.1889 -85.3186 137° Southeast 155 178 2,900  Descending Indianapolis Center
Sat 02:15:36 PM 40.1658 -85.3003 149° Southeast 164 189 3,000 57 Climbing Indianapolis Center
Sat 02:16:49 PM 40.1261 -85.2622 144° Southeast 152 175 3,000  Level Indianapolis Center
Sat 02:17:49 PM 40.0919 -85.2283 143° Southeast 157 181 3,000  Level Indianapolis Center
Sat 02:18:50 PM 40.0542 -85.1908 143° Southeast 158 182 3,000 49 Level Indianapolis Center
Sat 02:19:51 PM 40.0228 -85.1517 136° Southeast 158 182 3,100  Climbing Indianapolis Center
Sat 02:20:52 PM 39.9914 -85.1128 136° Southeast 151 174 3,000 -50 Descending Indianapolis Center
Sat 02:21:52 PM 39.9600 -85.0739 136° Southeast 158 182 3,000  Level Indianapolis Center
Sat 02:22:53 PM 39.9286 -85.0350 136° Southeast 157 181 3,000  Level Indianapolis Center
Sat 02:23:54 PM 39.8914 -84.9925 139° Southeast 160 184 3,000  Level Indianapolis Center
Sat 02:24:55 PM 39.8575 -84.9558 140° Southeast 161 185 3,000  Level Indianapolis Center
Sat 02:25:55 PM 39.8261 -84.9172 137° Southeast 158 182 3,000 50 Level Indianapolis Center
Sat 02:26:56 PM 39.7922 -84.8808 140° Southeast 158 182 3,100 98 Climbing Indianapolis Center
Sat 02:27:57 PM 39.7583 -84.8444 140° Southeast 161 185 3,200 -71 Climbing Indianapolis Center
Sat 02:29:44 PM 39.6833 -84.7833 148° Southeast 169 194 2,900 -180 Descending Cincinnati TRACON
Sat 02:30:44 PM 39.6500 -84.7500 142° Southeast 170 196 2,700 -200 Descending Cincinnati TRACON
Sat 02:31:44 PM 39.6000 -84.7167 153° Southeast 174 200 2,500 -150 Descending Cincinnati TRACON
Sat 02:32:44 PM 39.5667 -84.6833 142° Southeast 164 189 2,400 -143 Descending Cincinnati TRACON
Sat 02:33:50 PM 39.5333 -84.6500 142° Southeast 164 189 2,200 -45 Descending Cincinnati TRACON
Sat 02:34:56 PM 39.4833 -84.6167 153° Southeast 165 190 2,300 53 Climbing Cincinnati TRACON
Sat 02:35:44 PM 39.4500 -84.5833 142° Southeast 157 181 2,300  Level Cincinnati TRACON

Login

Don't have an account? Register now (free) for customized features, flight alerts, and more!